Time;durP1;ratioP1;P1;durP2;ratioP2;P2;SDS_P1;SDS_P2;PMS_P1;PMS_P2;Temp;Humidity;BMP_temperature;BMP_pressure;BME280_temperature;BME280_humidity;BME280_pressure;Samples;Min_cycle;Max_cycle;Signal;HPM_P1;HPM_P2
2024/01/10 00:01:51;;;;;;;17.77;8.30;;;;;;;;;;4986432;28;20054;-58
2024/01/10 00:04:38;;;;;;;18.43;9.10;;;;;;;;;;4977818;28;20058;-56
2024/01/10 00:07:32;;;;;;;18.40;8.60;;;;;;;;;;4982370;28;20042;-49
2024/01/10 00:10:21;;;;;;;15.07;8.00;;;;;;;;;;4978696;28;20051;-55
2024/01/10 00:13:13;;;;;;;17.63;9.13;;;;;;;;;;4982097;28;20109;-52
2024/01/10 00:16:07;;;;;;;17.08;7.47;;;;;;;;;;4981711;28;20065;-53
2024/01/10 00:19:01;;;;;;;19.37;8.53;;;;;;;;;;4983957;28;20108;-51
2024/01/10 00:21:36;;;;;;;19.17;9.23;;;;;;;;;;4982046;28;20062;-55
2024/01/10 00:24:03;;;;;;;19.57;8.30;;;;;;;;;;4979890;28;20050;-55
2024/01/10 00:26:37;;;;;;;19.40;8.43;;;;;;;;;;4975683;28;20066;-55
2024/01/10 00:29:04;;;;;;;;;;;;;;;;;;4977158;28;20664;-56
2024/01/10 00:31:38;;;;;;;19.80;8.07;;;;;;;;;;4974222;28;19922;-54
2024/01/10 00:34:05;;;;;;;19.33;8.23;;;;;;;;;;4983159;28;20054;-62
2024/01/10 00:36:33;;;;;;;17.40;8.57;;;;;;;;;;4980675;28;20058;-63
2024/01/10 00:39:07;;;;;;;17.27;8.10;;;;;;;;;;4980645;28;20160;-62
2024/01/10 00:41:34;;;;;;;;;;;;;;;;;;4983403;28;20669;-62
2024/01/10 00:44:08;;;;;;;22.33;8.83;;;;;;;;;;4986044;28;19964;-62
2024/01/10 00:46:35;;;;;;;;;;;;;;;;;;4983461;28;20497;-62
2024/01/10 00:49:03;;;;;;;16.50;6.83;;;;;;;;;;4980527;28;20316;-62
2024/01/10 00:51:36;;;;;;;16.10;7.30;;;;;;;;;;4983648;28;20054;-62
2024/01/10 00:54:03;;;;;;;;;;;;;;;;;;4982330;28;20074;-62
2024/01/10 00:56:37;;;;;;;16.43;7.43;;;;;;;;;;4980614;28;20401;-62
2024/01/10 00:59:11;;;;;;;20.60;8.50;;;;;;;;;;4982596;28;20050;-68
2024/01/10 01:01:38;;;;;;;18.03;8.77;;;;;;;;;;4984843;28;20105;-58
2024/01/10 01:04:12;;;;;;;21.50;9.50;;;;;;;;;;4981344;28;20165;-57
2024/01/10 01:06:39;;;;;;;19.10;9.38;;;;;;;;;;4980890;28;20073;-58
2024/01/10 01:09:07;;;;;;;;;;;;;;;;;;4982961;28;20110;-58
2024/01/10 01:11:41;;;;;;;19.23;9.00;;;;;;;;;;4984304;28;19933;-57
2024/01/10 01:14:08;;;;;;;18.13;8.23;;;;;;;;;;4981910;28;20058;-56
2024/01/10 01:16:42;;;;;;;24.33;9.43;;;;;;;;;;4963910;28;20054;-61
2024/01/10 01:19:10;;;;;;;18.40;8.57;;;;;;;;;;4983233;28;20078;-62
2024/01/10 01:21:37;;;;;;;20.87;8.70;;;;;;;;;;4981353;28;20140;-61
2024/01/10 01:24:11;;;;;;;19.63;9.57;;;;;;;;;;4986108;28;20109;-61
2024/01/10 01:26:38;;;;;;;;;;;;;;;;;;4980313;28;20054;-61
2024/01/10 01:29:05;;;;;;;14.90;8.63;;;;;;;;;;4983072;28;19925;-61
2024/01/10 01:31:39;;;;;;;17.17;9.40;;;;;;;;;;4981571;28;20054;-62
2024/01/10 01:34:06;;;;;;;;;;;;;;;;;;4984812;28;20050;-61
2024/01/10 01:36:40;;;;;;;17.03;8.53;;;;;;;;;;4979444;28;20476;-62
2024/01/10 01:39:07;;;;;;;;;;;;;;;;;;4983582;28;20058;-61
2024/01/10 01:41:34;;;;;;;18.40;8.60;;;;;;;;;;4980480;28;19977;-61
2024/01/10 01:44:08;;;;;;;19.90;8.10;;;;;;;;;;4983862;28;20050;-61
2024/01/10 01:46:35;;;;;;;16.27;7.67;;;;;;;;;;4980939;28;20553;-53
2024/01/10 01:49:11;;;;;;;19.20;7.40;;;;;;;;;;4983631;28;20054;-54
2024/01/10 01:51:39;;;;;;;18.57;8.27;;;;;;;;;;4963993;28;20046;-52
2024/01/10 01:54:11;;;;;;;16.43;8.00;;;;;;;;;;4982765;28;20141;-53
2024/01/10 01:56:45;;;;;;;16.33;7.33;;;;;;;;;;4983433;28;20051;-68
2024/01/10 01:59:12;;;;;;;;;;;;;;;;;;4984190;28;20457;-61
2024/01/10 02:01:46;;;;;;;18.20;7.83;;;;;;;;;;4988394;28;19930;-61
2024/01/10 02:04:13;;;;;;;;;;;;;;;;;;4985801;28;20069;-62
2024/01/10 02:06:41;;;;;;;15.93;7.90;;;;;;;;;;4984231;28;19965;-59
2024/01/10 02:09:14;;;;;;;17.83;8.47;;;;;;;;;;4985970;28;20062;-61
2024/01/10 02:11:41;;;;;;;;;;;;;;;;;;4985952;28;20066;-61
2024/01/10 02:14:16;;;;;;;19.67;7.60;;;;;;;;;;4986375;28;19926;-62
2024/01/10 02:16:43;;;;;;;20.80;7.73;;;;;;;;;;4986480;28;20105;-62
2024/01/10 02:19:23;;;;;;;16.33;8.47;;;;;;;;;;4979176;28;20137;-63
2024/01/10 02:21:57;;;;;;;15.93;7.80;;;;;;;;;;4981686;28;20077;-63
2024/01/10 02:24:24;;;;;;;18.38;8.23;;;;;;;;;;4979123;28;20054;-53
2024/01/10 02:26:58;;;;;;;15.83;7.33;;;;;;;;;;4983945;28;20125;-67
2024/01/10 02:29:25;;;;;;;15.70;7.68;;;;;;;;;;4984165;28;20510;-54
2024/01/10 02:32:19;;;;;;;16.40;7.53;;;;;;;;;;4985782;28;20112;-57
2024/01/10 02:35:07;;;;;;;18.03;8.30;;;;;;;;;;4981848;28;20050;-60
2024/01/10 02:38:00;;;;;;;15.83;7.87;;;;;;;;;;4981958;28;20135;-60
2024/01/10 02:40:47;;;;;;;14.47;8.00;;;;;;;;;;4983100;28;20058;-60
2024/01/10 02:43:41;;;;;;;15.80;8.00;;;;;;;;;;4981698;28;20145;-62
2024/01/10 02:46:29;;;;;;;18.37;7.50;;;;;;;;;;4984089;28;20085;-62
2024/01/10 02:49:22;;;;;;;20.37;7.93;;;;;;;;;;4985720;28;20050;-62
2024/01/10 02:52:09;;;;;;;15.53;7.43;;;;;;;;;;4982054;28;20054;-62
2024/01/10 02:55:11;;;;;;;18.20;7.33;;;;;;;;;;4983313;28;20857;-62
2024/01/10 02:57:58;;;;;;;16.73;6.40;;;;;;;;;;4983319;28;20049;-68
2024/01/10 03:00:52;;;;;;;14.97;7.27;;;;;;;;;;4980342;28;20057;-68
2024/01/10 03:03:39;;;;;;;13.03;6.30;;;;;;;;;;4982704;28;20090;-67
2024/01/10 03:06:33;;;;;;;13.77;6.37;;;;;;;;;;4982964;28;20149;-67
2024/01/10 03:09:20;;;;;;;13.77;7.10;;;;;;;;;;4981740;28;20121;-67
2024/01/10 03:12:14;;;;;;;15.63;7.40;;;;;;;;;;4986300;28;20395;-62
2024/01/10 03:15:01;;;;;;;21.17;8.47;;;;;;;;;;4983980;28;20078;-62
2024/01/10 03:17:55;;;;;;;23.93;8.63;;;;;;;;;;4981998;28;20058;-62
2024/01/10 03:20:43;;;;;;;17.63;8.50;;;;;;;;;;4977772;28;20061;-62
2024/01/10 03:23:36;;;;;;;23.53;9.53;;;;;;;;;;4985851;28;20050;-60
2024/01/10 03:26:24;;;;;;;15.57;8.10;;;;;;;;;;4982667;28;20061;-67
2024/01/10 03:29:17;;;;;;;20.63;8.50;;;;;;;;;;4985652;28;20058;-67
2024/01/10 03:32:04;;;;;;;19.00;9.40;;;;;;;;;;4985150;28;20046;-67
2024/01/10 03:34:58;;;;;;;18.97;8.77;;;;;;;;;;4982379;28;20682;-66
2024/01/10 03:37:52;;;;;;;22.20;8.93;;;;;;;;;;4981927;28;20058;-67
2024/01/10 03:40:46;;;;;;;19.53;8.50;;;;;;;;;;4985847;28;20054;-53
2024/01/10 03:43:33;;;;;;;19.83;8.30;;;;;;;;;;4980772;28;21675;-52
2024/01/10 03:46:27;;;;;;;18.23;8.77;;;;;;;;;;4985336;28;20086;-52
2024/01/10 03:49:14;;;;;;;17.20;8.87;;;;;;;;;;4981084;28;20134;-54
2024/01/10 03:52:08;;;;;;;20.47;9.27;;;;;;;;;;4981165;28;20058;-51
2024/01/10 03:55:02;;;;;;;20.57;9.20;;;;;;;;;;4981752;28;20116;-61
2024/01/10 03:57:55;;;;;;;18.60;9.40;;;;;;;;;;4985337;28;20105;-62
2024/01/10 04:00:42;;;;;;;15.27;8.13;;;;;;;;;;4984336;28;20050;-62
2024/01/10 04:03:36;;;;;;;17.70;8.10;;;;;;;;;;4985788;28;20051;-61
2024/01/10 04:06:23;;;;;;;13.90;7.67;;;;;;;;;;4983232;28;20058;-61
2024/01/10 04:09:17;;;;;;;14.80;7.43;;;;;;;;;;4983696;28;20046;-61
2024/01/10 04:12:04;;;;;;;14.27;7.27;;;;;;;;;;4976583;28;20556;-61
2024/01/10 04:14:58;;;;;;;17.27;8.37;;;;;;;;;;4984110;28;20046;-61
2024/01/10 04:17:45;;;;;;;16.73;8.10;;;;;;;;;;4985172;28;20057;-61
2024/01/10 04:20:44;;;;;;;17.88;8.60;;;;;;;;;;4970686;28;20054;-62
2024/01/10 04:23:33;;;;;;;16.87;8.17;;;;;;;;;;4985919;28;20129;-54
2024/01/10 04:26:25;;;;;;;12.93;7.20;;;;;;;;;;4984428;28;20062;-54
2024/01/10 04:29:11;;;;;;;16.23;6.80;;;;;;;;;;4984505;28;20046;-53
2024/01/10 04:32:05;;;;;;;14.03;7.07;;;;;;;;;;4984648;28;20494;-51
2024/01/10 04:34:53;;;;;;;15.15;7.15;;;;;;;;;;4985939;28;20057;-54
2024/01/10 04:37:47;;;;;;;10.83;6.03;;;;;;;;;;4983441;28;20070;-58
2024/01/10 04:40:34;;;;;;;12.50;6.50;;;;;;;;;;4979326;28;20510;-62
2024/01/10 04:43:28;;;;;;;12.23;6.53;;;;;;;;;;4981388;28;20054;-61
2024/01/10 04:46:15;;;;;;;17.33;7.00;;;;;;;;;;4985039;28;20046;-61
2024/01/10 04:49:09;;;;;;;17.73;7.60;;;;;;;;;;4983242;28;20052;-62
2024/01/10 04:51:57;;;;;;;14.30;7.47;;;;;;;;;;4984861;28;20097;-62
2024/01/10 04:54:57;;;;;;;14.97;7.63;;;;;;;;;;4966914;28;20059;-62
2024/01/10 04:57:44;;;;;;;19.50;7.90;;;;;;;;;;4964388;28;20066;-66
2024/01/10 05:00:38;;;;;;;14.67;7.10;;;;;;;;;;4961214;28;20078;-67
2024/01/10 05:03:25;;;;;;;17.40;7.70;;;;;;;;;;4965290;28;20061;-67
2024/01/10 05:06:19;;;;;;;13.60;7.13;;;;;;;;;;4965532;28;20156;-52
2024/01/10 05:09:06;;;;;;;12.37;6.70;;;;;;;;;;4963068;28;20051;-61
2024/01/10 05:12:00;;;;;;;13.07;6.50;;;;;;;;;;4958577;28;20102;-62
2024/01/10 05:14:47;;;;;;;12.17;6.67;;;;;;;;;;4960541;28;20062;-61
2024/01/10 05:17:42;;;;;;;20.33;7.13;;;;;;;;;;4964981;28;20590;-61
2024/01/10 05:20:28;;;;;;;15.27;6.53;;;;;;;;;;4958555;28;20090;-61
2024/01/10 05:23:22;;;;;;;14.00;7.03;;;;;;;;;;4959692;28;20047;-61
2024/01/10 05:26:10;;;;;;;17.13;7.90;;;;;;;;;;4946915;28;20059;-62
2024/01/10 05:29:03;;;;;;;14.93;7.30;;;;;;;;;;4959005;28;20050;-61
2024/01/10 05:31:50;;;;;;;15.33;7.37;;;;;;;;;;4956674;28;20509;-61
2024/01/10 05:34:45;;;;;;;15.27;7.43;;;;;;;;;;4965351;28;20510;-62
2024/01/10 05:37:32;;;;;;;9.98;5.65;;;;;;;;;;4952202;28;20066;-62
2024/01/10 05:40:27;;;;;;;18.57;7.73;;;;;;;;;;4966844;28;20526;-62
2024/01/10 05:43:15;;;;;;;17.63;8.40;;;;;;;;;;4965420;28;20059;-61
2024/01/10 05:46:07;;;;;;;16.90;7.87;;;;;;;;;;4963959;28;20403;-61
2024/01/10 05:48:54;;;;;;;20.70;8.83;;;;;;;;;;4962134;28;20082;-62
2024/01/10 05:51:48;;;;;;;17.23;7.63;;;;;;;;;;4964343;28;20470;-63
2024/01/10 05:54:42;;;;;;;16.67;7.87;;;;;;;;;;4976001;28;20062;-52
2024/01/10 05:57:42;;;;;;;19.27;8.70;;;;;;;;;;4982747;28;20054;-56
2024/01/10 06:00:36;;;;;;;18.00;7.97;;;;;;;;;;4981658;28;20110;-54
2024/01/10 06:03:24;;;;;;;13.53;6.67;;;;;;;;;;4981208;28;20051;-57
2024/01/10 06:06:17;;;;;;;18.13;9.03;;;;;;;;;;4976896;28;20050;-68
2024/01/10 06:09:11;;;;;;;19.93;7.97;;;;;;;;;;4979975;28;20501;-67
2024/01/10 06:11:58;;;;;;;20.00;8.40;;;;;;;;;;4981964;28;20563;-69
2024/01/10 06:14:52;;;;;;;16.93;8.23;;;;;;;;;;4982222;28;20050;-68
2024/01/10 06:17:46;;;;;;;19.93;8.13;;;;;;;;;;4984878;28;20109;-68
2024/01/10 06:20:40;;;;;;;17.90;8.40;;;;;;;;;;4981036;28;20077;-56
2024/01/10 06:23:34;;;;;;;19.33;8.83;;;;;;;;;;4982353;28;20101;-55
2024/01/10 06:26:22;;;;;;;11.40;6.13;;;;;;;;;;4980701;28;20116;-56
2024/01/10 06:29:15;;;;;;;19.70;8.90;;;;;;;;;;4980458;28;20556;-54
2024/01/10 06:32:06;;;;;;;21.50;9.02;;;;;;;;;;4983014;28;20106;-67
2024/01/10 06:35:01;;;;;;;18.23;8.53;;;;;;;;;;4983959;28;20074;-56
2024/01/10 06:37:53;;;;;;;15.70;7.63;;;;;;;;;;4980207;28;20687;-54
2024/01/10 06:40:47;;;;;;;20.87;8.93;;;;;;;;;;4980924;28;20742;-54
2024/01/10 06:43:34;;;;;;;17.70;9.10;;;;;;;;;;4982762;28;20285;-51
2024/01/10 06:46:30;;;;;;;21.17;8.93;;;;;;;;;;4983593;28;20062;-54
2024/01/10 06:49:16;;;;;;;18.35;9.30;;;;;;;;;;4983414;28;20082;-58
2024/01/10 06:52:09;;;;;;;19.67;8.60;;;;;;;;;;4984401;28;20049;-60
2024/01/10 06:55:04;;;;;;;18.20;8.77;;;;;;;;;;4980235;28;20504;-59
2024/01/10 06:57:57;;;;;;;20.80;9.20;;;;;;;;;;4986577;28;20065;-57
2024/01/10 07:00:44;;;;;;;20.07;8.60;;;;;;;;;;4985042;28;20054;-59
2024/01/10 07:03:38;;;;;;;18.20;7.80;;;;;;;;;;4984466;28;20090;-67
2024/01/10 07:06:25;;;;;;;20.90;8.50;;;;;;;;;;4983732;28;20553;-67
2024/01/10 07:09:19;;;;;;;22.40;8.57;;;;;;;;;;4983367;28;20223;-67
2024/01/10 07:12:06;;;;;;;18.50;8.77;;;;;;;;;;4981863;28;20439;-67
2024/01/10 07:15:02;;;;;;;21.97;9.00;;;;;;;;;;4985402;28;20113;-67
2024/01/10 07:17:48;;;;;;;13.00;6.68;;;;;;;;;;4985060;28;20576;-61
2024/01/10 07:20:41;;;;;;;22.10;8.93;;;;;;;;;;4982534;28;20058;-61
2024/01/10 07:23:29;;;;;;;21.97;9.03;;;;;;;;;;4979196;28;20090;-61
2024/01/10 07:26:22;;;;;;;18.60;8.23;;;;;;;;;;4980475;28;21098;-62
2024/01/10 07:29:09;;;;;;;23.10;8.97;;;;;;;;;;4986260;28;20052;-61
2024/01/10 07:32:03;;;;;;;19.03;8.87;;;;;;;;;;4982639;28;20681;-67
2024/01/10 07:34:50;;;;;;;19.02;8.55;;;;;;;;;;4983409;28;20077;-67
2024/01/10 07:37:44;;;;;;;19.57;9.07;;;;;;;;;;4981859;28;20047;-66
2024/01/10 07:40:31;;;;;;;20.80;8.87;;;;;;;;;;4982803;28;20141;-66
2024/01/10 07:43:26;;;;;;;21.17;9.00;;;;;;;;;;4983605;28;20711;-67
2024/01/10 07:46:18;;;;;;;18.27;8.33;;;;;;;;;;4984906;28;20601;-66
2024/01/10 07:49:12;;;;;;;19.23;7.43;;;;;;;;;;4981747;28;20356;-61
2024/01/10 07:52:00;;;;;;;18.40;8.23;;;;;;;;;;4983811;28;20066;-60
2024/01/10 07:55:00;;;;;;;17.07;7.63;;;;;;;;;;4983053;28;20069;-61
2024/01/10 07:57:47;;;;;;;17.93;8.60;;;;;;;;;;4983483;28;20518;-66
2024/01/10 08:00:41;;;;;;;20.87;8.73;;;;;;;;;;4985247;28;20104;-52
2024/01/10 08:03:35;;;;;;;19.57;8.47;;;;;;;;;;4986029;28;21130;-54
2024/01/10 08:06:36;;;;;;;22.63;9.87;;;;;;;;;;4983237;28;20062;-51
2024/01/10 08:09:24;;;;;;;19.17;8.90;;;;;;;;;;4978557;28;20064;-54
2024/01/10 08:12:17;;;;;;;23.03;9.53;;;;;;;;;;4986340;28;20108;-54
2024/01/10 08:15:06;;;;;;;17.17;8.33;;;;;;;;;;4980391;28;20057;-61
2024/01/10 08:17:58;;;;;;;24.07;10.27;;;;;;;;;;4983971;28;20053;-61
2024/01/10 08:20:45;;;;;;;16.43;8.70;;;;;;;;;;4983416;28;20054;-61
2024/01/10 08:23:39;;;;;;;23.50;9.40;;;;;;;;;;4983587;28;20935;-61
2024/01/10 08:26:27;;;;;;;21.33;10.20;;;;;;;;;;4984021;28;20473;-61
2024/01/10 08:29:22;;;;;;;21.33;9.73;;;;;;;;;;4984154;28;20646;-61
2024/01/10 08:32:09;;;;;;;22.15;9.25;;;;;;;;;;4982717;28;21055;-61
2024/01/10 08:35:08;;;;;;;20.90;9.13;;;;;;;;;;4983565;28;20047;-62
2024/01/10 08:37:55;;;;;;;20.77;8.77;;;;;;;;;;4976030;28;20553;-61
2024/01/10 08:40:49;;;;;;;22.73;8.70;;;;;;;;;;4983522;28;20431;-61
2024/01/10 08:43:36;;;;;;;18.70;9.10;;;;;;;;;;4983062;28;20062;-56
2024/01/10 08:46:30;;;;;;;21.00;9.03;;;;;;;;;;4980373;28;20050;-56
2024/01/10 08:49:18;;;;;;;26.37;9.50;;;;;;;;;;4982528;28;20072;-54
2024/01/10 08:52:11;;;;;;;19.80;8.60;;;;;;;;;;4979363;28;20690;-50
2024/01/10 08:55:15;;;;;;;23.27;10.03;;;;;;;;;;4979997;28;20601;-63
2024/01/10 08:58:09;;;;;;;17.17;8.67;;;;;;;;;;4984278;28;20061;-59
2024/01/10 09:01:10;;;;;;;19.97;9.10;;;;;;;;;;4981270;28;20132;-55
2024/01/10 09:03:57;;;;;;;22.40;9.83;;;;;;;;;;4978268;28;20073;-59
2024/01/10 09:06:51;;;;;;;19.70;8.93;;;;;;;;;;4980655;28;20058;-59
2024/01/10 09:09:39;;;;;;;19.80;8.47;;;;;;;;;;4983684;28;20051;-57
2024/01/10 09:12:32;;;;;;;18.27;9.03;;;;;;;;;;4981567;28;20054;-62
2024/01/10 09:15:19;;;;;;;24.03;9.93;;;;;;;;;;4984830;28;20074;-63
2024/01/10 09:18:13;;;;;;;20.93;9.27;;;;;;;;;;4983559;28;20054;-63
2024/01/10 09:21:00;;;;;;;21.90;9.33;;;;;;;;;;4981330;28;20497;-63
2024/01/10 09:23:55;;;;;;;19.00;9.57;;;;;;;;;;4979159;28;20042;-51
2024/01/10 09:26:54;;;;;;;23.10;9.37;;;;;;;;;;4984532;28;20070;-63
2024/01/10 09:29:48;;;;;;;23.73;9.40;;;;;;;;;;4982915;28;20078;-63
2024/01/10 09:32:36;;;;;;;19.27;8.90;;;;;;;;;;4982360;28;20061;-63
2024/01/10 09:35:31;;;;;;;19.23;8.17;;;;;;;;;;4983214;28;20058;-64
2024/01/10 09:38:17;;;;;;;21.53;9.10;;;;;;;;;;4984052;28;20113;-63
2024/01/10 09:41:14;;;;;;;19.20;8.83;;;;;;;;;;4981655;28;20069;-62
2024/01/10 09:44:08;;;;;;;20.63;9.73;;;;;;;;;;4983129;28;20057;-61
2024/01/10 09:47:02;;;;;;;18.63;8.67;;;;;;;;;;4982628;28;20054;-63
2024/01/10 09:49:49;;;;;;;23.13;9.77;;;;;;;;;;4985679;28;20054;-63
2024/01/10 09:52:51;;;;;;;21.87;9.57;;;;;;;;;;4972954;28;20065;-69
2024/01/10 09:55:45;;;;;;;24.13;9.80;;;;;;;;;;4980435;28;20065;-60
2024/01/10 09:58:40;;;;;;;19.50;9.70;;;;;;;;;;4978739;28;20051;-61
2024/01/10 10:01:27;;;;;;;21.83;9.13;;;;;;;;;;4979936;28;20512;-59
2024/01/10 10:04:21;;;;;;;19.90;8.93;;;;;;;;;;4981802;28;20057;-61
2024/01/10 10:07:08;;;;;;;16.67;7.88;;;;;;;;;;4980031;28;20050;-61
2024/01/10 10:10:01;;;;;;;20.40;9.38;;;;;;;;;;4982141;28;20617;-53
2024/01/10 10:12:49;;;;;;;19.53;8.90;;;;;;;;;;4981884;28;20134;-55
2024/01/10 10:15:44;;;;;;;20.20;10.17;;;;;;;;;;4982003;28;20449;-51
2024/01/10 10:18:37;;;;;;;23.77;9.63;;;;;;;;;;4980912;28;20337;-54
2024/01/10 10:21:27;;;;;;;19.40;9.35;;;;;;;;;;4981761;28;20050;-56
2024/01/10 10:24:19;;;;;;;20.50;9.32;;;;;;;;;;4984312;28;20075;-62
2024/01/10 10:27:09;;;;;;;21.13;9.40;;;;;;;;;;4984840;28;20066;-62
2024/01/10 10:30:03;;;;;;;19.30;9.10;;;;;;;;;;4987363;28;20050;-63
2024/01/10 10:32:50;;;;;;;19.00;9.32;;;;;;;;;;4984439;28;20042;-63
2024/01/10 10:35:45;;;;;;;21.85;9.18;;;;;;;;;;4983181;28;20085;-62
2024/01/10 10:38:33;;;;;;;19.10;9.18;;;;;;;;;;4986071;28;20510;-69
2024/01/10 10:41:27;;;;;;;19.52;9.07;;;;;;;;;;4985483;28;20081;-69
2024/01/10 10:44:17;;;;;;;21.88;9.82;;;;;;;;;;4982439;28;20058;-69
2024/01/10 10:47:12;;;;;;;17.40;8.80;;;;;;;;;;4987283;28;20054;-69
2024/01/10 10:49:59;;;;;;;;;;;;;;;;;;4985884;28;20054;-61
2024/01/10 10:52:55;;;;;;;18.58;8.55;;;;;;;;;;4985609;28;19929;-62
2024/01/10 10:55:49;;;;;;;18.95;8.75;;;;;;;;;;4986083;28;20058;-63
2024/01/10 10:58:44;;;;;;;19.38;8.38;;;;;;;;;;4984264;28;20054;-63
2024/01/10 11:01:32;;;;;;;16.92;7.68;;;;;;;;;;4975360;28;20054;-61
2024/01/10 11:04:26;;;;;;;16.10;7.85;;;;;;;;;;4984726;28;20054;-62
2024/01/10 11:07:14;;;;;;;17.55;8.70;;;;;;;;;;4982805;28;20145;-61
2024/01/10 11:10:17;;;;;;;18.08;8.50;;;;;;;;;;4982129;28;20113;-60
2024/01/10 11:13:14;;;;;;;18.30;8.63;;;;;;;;;;4973861;28;20054;-61
2024/01/10 11:16:16;;;;;;;18.75;9.35;;;;;;;;;;4982854;28;20522;-61
2024/01/10 11:19:29;;;;;;;18.98;8.85;;;;;;;;;;4983259;28;20054;-61
2024/01/10 11:22:54;;;;;;;17.27;9.20;;;;;;;;;;4980945;28;20136;-55
2024/01/10 11:25:48;;;;;;;19.67;9.25;;;;;;;;;;4949141;28;20050;-54
2024/01/10 11:28:42;;;;;;;18.13;9.68;;;;;;;;;;4981569;28;20517;-55
2024/01/10 11:31:30;;;;;;;15.90;7.57;;;;;;;;;;4979637;28;20145;-54
2024/01/10 11:34:26;;;;;;;21.90;10.40;;;;;;;;;;4983943;28;20303;-55
2024/01/10 11:37:13;;;;;;;24.25;9.88;;;;;;;;;;4983426;28;21001;-67
2024/01/10 11:40:10;;;;;;;22.30;10.18;;;;;;;;;;4983841;28;20082;-67
2024/01/10 11:42:59;;;;;;;18.48;10.15;;;;;;;;;;4977216;28;20050;-67
2024/01/10 11:45:55;;;;;;;20.10;10.25;;;;;;;;;;4983580;28;20065;-60
2024/01/10 11:48:43;;;;;;;20.42;10.38;;;;;;;;;;4983024;28;20659;-61
2024/01/10 11:51:37;;;;;;;20.77;10.38;;;;;;;;;;4979923;28;20065;-61
2024/01/10 11:54:37;;;;;;;21.20;9.93;;;;;;;;;;4981213;28;20046;-61
2024/01/10 11:57:33;;;;;;;21.85;10.45;;;;;;;;;;4983238;28;20141;-61
2024/01/10 12:00:28;;;;;;;22.20;10.00;;;;;;;;;;4976319;28;20113;-61
2024/01/10 12:03:18;;;;;;;19.70;9.98;;;;;;;;;;4984516;28;20062;-58
2024/01/10 12:06:32;;;;;;;19.63;10.57;;;;;;;;;;4983877;28;20257;-61
2024/01/10 12:09:25;;;;;;;26.10;10.95;;;;;;;;;;4981283;28;20142;-61
2024/01/10 12:12:13;;;;;;;21.25;9.60;;;;;;;;;;4982477;28;20057;-61
2024/01/10 12:15:06;;;;;;;21.85;10.65;;;;;;;;;;4982854;28;20054;-54
2024/01/10 12:17:53;;;;;;;24.33;11.70;;;;;;;;;;4983043;28;20054;-61
2024/01/10 12:20:47;;;;;;;26.35;10.48;;;;;;;;;;4981780;28;20094;-60
2024/01/10 12:23:35;;;;;;;23.23;10.98;;;;;;;;;;4983920;28;20050;-61
2024/01/10 12:26:28;;;;;;;23.38;10.98;;;;;;;;;;4983054;28;20070;-61
2024/01/10 12:29:22;;;;;;;20.42;10.80;;;;;;;;;;4978664;28;20478;-61
2024/01/10 12:32:18;;;;;;;22.27;10.27;;;;;;;;;;4980886;28;20061;-60
2024/01/10 12:35:06;;;;;;;26.38;10.55;;;;;;;;;;4983767;28;20141;-60
2024/01/10 12:37:59;;;;;;;21.83;9.93;;;;;;;;;;4981298;28;20058;-60
2024/01/10 12:40:54;;;;;;;27.70;11.98;;;;;;;;;;4983742;28;20137;-58
2024/01/10 12:43:41;;;;;;;24.33;11.32;;;;;;;;;;4983056;28;20061;-55
2024/01/10 12:46:35;;;;;;;23.80;11.27;;;;;;;;;;4983243;28;20062;-52
2024/01/10 12:49:23;;;;;;;22.98;10.90;;;;;;;;;;4983623;28;20501;-52
2024/01/10 12:52:19;;;;;;;24.58;11.30;;;;;;;;;;4982994;28;20058;-48
2024/01/10 12:55:12;;;;;;;22.98;11.55;;;;;;;;;;4981733;28;20058;-47
2024/01/10 12:58:07;;;;;;;21.80;10.93;;;;;;;;;;4969357;28;20065;-51
2024/01/10 13:00:54;;;;;;;19.50;10.63;;;;;;;;;;4980481;28;20317;-60
2024/01/10 13:03:48;;;;;;;19.80;10.57;;;;;;;;;;4983485;28;20576;-58
2024/01/10 13:06:36;;;;;;;17.13;7.75;;;;;;;;;;4981660;28;20043;-60
2024/01/10 13:09:29;;;;;;;21.20;9.93;;;;;;;;;;4980683;28;20054;-61
2024/01/10 13:12:16;;;;;;;24.70;10.27;;;;;;;;;;4982643;28;20132;-61
2024/01/10 13:15:10;;;;;;;26.20;10.68;;;;;;;;;;4982442;28;20046;-60
2024/01/10 13:17:57;;;;;;;20.77;9.98;;;;;;;;;;4982750;28;20482;-61
2024/01/10 13:20:51;;;;;;;19.92;10.00;;;;;;;;;;4977501;28;20113;-60
2024/01/10 13:23:38;;;;;;;22.65;10.20;;;;;;;;;;4981615;28;20061;-60
2024/01/10 13:26:32;;;;;;;22.92;10.27;;;;;;;;;;4980682;28;20134;-61
2024/01/10 13:29:19;;;;;;;28.05;10.50;;;;;;;;;;4985682;28;20054;-52
2024/01/10 13:32:15;;;;;;;20.58;10.63;;;;;;;;;;4985419;28;20469;-53
2024/01/10 13:35:00;;;;;;;24.42;10.45;;;;;;;;;;4984236;28;20122;-50
2024/01/10 13:37:54;;;;;;;23.65;10.80;;;;;;;;;;4980596;28;20046;-51
2024/01/10 13:40:41;;;;;;;21.83;10.38;;;;;;;;;;4984695;28;20413;-54
2024/01/10 13:43:35;;;;;;;21.88;10.93;;;;;;;;;;4982236;28;20149;-55
2024/01/10 13:46:22;;;;;;;22.17;11.05;;;;;;;;;;4983909;28;20042;-58
2024/01/10 13:49:16;;;;;;;23.02;10.05;;;;;;;;;;4982923;28;20058;-58
2024/01/10 13:52:03;;;;;;;22.75;10.55;;;;;;;;;;4983976;28;20166;-58
2024/01/10 13:55:07;;;;;;;21.08;10.18;;;;;;;;;;4986200;28;20086;-59
2024/01/10 13:57:55;;;;;;;19.83;10.07;;;;;;;;;;4982982;28;20069;-61
2024/01/10 14:00:48;;;;;;;20.38;10.32;;;;;;;;;;4987556;28;20755;-61
2024/01/10 14:03:36;;;;;;;24.17;11.18;;;;;;;;;;4985433;28;20145;-61
2024/01/10 14:06:29;;;;;;;23.88;10.80;;;;;;;;;;4985489;28;20064;-60
2024/01/10 14:09:17;;;;;;;23.52;10.90;;;;;;;;;;4984525;28;20072;-60
2024/01/10 14:12:10;;;;;;;20.85;10.98;;;;;;;;;;4986443;28;20061;-59
2024/01/10 14:15:04;;;;;;;25.33;11.48;;;;;;;;;;4983546;28;20473;-60
2024/01/10 14:17:52;;;;;;;23.80;11.38;;;;;;;;;;4985090;28;20485;-61
2024/01/10 14:20:45;;;;;;;22.27;10.75;;;;;;;;;;4982428;28;20105;-61
2024/01/10 14:23:32;;;;;;;26.98;11.57;;;;;;;;;;4985637;28;20482;-61
2024/01/10 14:26:26;;;;;;;26.17;10.65;;;;;;;;;;4975930;28;20081;-60
2024/01/10 14:29:14;;;;;;;23.08;10.70;;;;;;;;;;4983967;28;20105;-59
2024/01/10 14:32:07;;;;;;;30.63;11.27;;;;;;;;;;4983511;28;20561;-61
2024/01/10 14:34:55;;;;;;;28.45;10.95;;;;;;;;;;4985651;28;20608;-60
2024/01/10 14:37:49;;;;;;;24.65;11.15;;;;;;;;;;4983764;28;20124;-61
2024/01/10 14:40:37;;;;;;;26.38;12.43;;;;;;;;;;4984667;28;20061;-67
2024/01/10 14:43:31;;;;;;;29.05;12.20;;;;;;;;;;4984688;28;20117;-66
2024/01/10 14:46:19;;;;;;;24.88;11.50;;;;;;;;;;4984150;28;20573;-67
2024/01/10 14:49:26;;;;;;;28.48;12.32;;;;;;;;;;4983833;28;20151;-67
2024/01/10 14:52:14;;;;;;;25.25;11.75;;;;;;;;;;4983446;28;20429;-67
2024/01/10 14:55:15;;;;;;;29.40;12.50;;;;;;;;;;4976818;28;20113;-59
2024/01/10 14:58:09;;;;;;;30.00;12.07;;;;;;;;;;4984929;28;20062;-60
2024/01/10 15:01:02;;;;;;;30.63;12.82;;;;;;;;;;4982706;28;20055;-62
2024/01/10 15:03:51;;;;;;;28.25;12.65;;;;;;;;;;4982509;28;20051;-62
2024/01/10 15:06:44;;;;;;;33.33;12.38;;;;;;;;;;4984967;28;20498;-62
2024/01/10 15:09:31;;;;;;;30.30;13.23;;;;;;;;;;4982507;28;20065;-56
2024/01/10 15:12:08;;;;;;;35.33;13.70;;;;;;;;;;4984494;28;20073;-51
2024/01/10 15:14:38;;;;;;;33.03;12.75;;;;;;;;;;4980113;28;20138;-56
2024/01/10 15:17:07;;;;;;;32.08;12.30;;;;;;;;;;4981170;28;20134;-57
2024/01/10 15:19:41;;;;;;;25.00;13.35;;;;;;;;;;4984166;28;20058;-57
2024/01/10 15:22:09;;;;;;;41.30;19.95;;;;;;;;;;4981695;28;20062;-57
2024/01/10 15:24:42;;;;;;;46.92;21.08;;;;;;;;;;4984430;28;20058;-54
2024/01/10 15:27:11;;;;;;;37.78;18.48;;;;;;;;;;4984717;28;20046;-52
2024/01/10 15:29:39;;;;;;;77.25;36.08;;;;;;;;;;4980088;28;20060;-51
2024/01/10 15:32:43;;;;;;;73.78;32.55;;;;;;;;;;4974923;28;20050;-54
2024/01/10 15:35:30;;;;;;;64.18;28.13;;;;;;;;;;4984906;28;20054;-69
2024/01/10 15:38:24;;;;;;;48.50;20.80;;;;;;;;;;4980556;28;20054;-61
2024/01/10 15:41:11;;;;;;;34.30;15.98;;;;;;;;;;4983935;28;20058;-63
2024/01/10 15:44:06;;;;;;;44.47;19.27;;;;;;;;;;4982253;28;20448;-64
2024/01/10 15:46:57;;;;;;;34.25;15.48;;;;;;;;;;4982246;28;20093;-62
2024/01/10 15:49:49;;;;;;;38.92;17.48;;;;;;;;;;4980230;28;20066;-62
2024/01/10 15:52:37;;;;;;;36.08;15.57;;;;;;;;;;4982481;28;20714;-63
2024/01/10 15:55:38;;;;;;;55.28;20.80;;;;;;;;;;4975632;28;20054;-63
2024/01/10 15:58:35;;;;;;;29.35;12.77;;;;;;;;;;4984310;28;20061;-63
2024/01/10 16:01:28;;;;;;;23.05;11.48;;;;;;;;;;4980248;28;20064;-63
2024/01/10 16:04:17;;;;;;;27.48;11.95;;;;;;;;;;4981413;28;20057;-63
2024/01/10 16:07:10;;;;;;;30.48;12.85;;;;;;;;;;4982849;28;20062;-63
2024/01/10 16:09:57;;;;;;;30.33;12.38;;;;;;;;;;4979437;28;20483;-63
2024/01/10 16:12:55;;;;;;;33.22;13.75;;;;;;;;;;4982663;28;20062;-63
2024/01/10 16:15:42;;;;;;;31.88;14.05;;;;;;;;;;4984395;28;20080;-62
2024/01/10 16:18:37;;;;;;;30.58;13.55;;;;;;;;;;4983629;28;24098;-63
2024/01/10 16:21:30;;;;;;;28.35;12.20;;;;;;;;;;4983321;28;20053;-60
2024/01/10 16:24:24;;;;;;;26.77;12.68;;;;;;;;;;4976851;28;20054;-59
2024/01/10 16:27:12;;;;;;;19.17;8.63;;;;;;;;;;4985524;28;20493;-57
2024/01/10 16:30:05;;;;;;;26.27;12.13;;;;;;;;;;4982665;28;20313;-61
2024/01/10 16:32:59;;;;;;;31.03;13.50;;;;;;;;;;4982107;28;20141;-58
2024/01/10 16:35:46;;;;;;;36.63;12.80;;;;;;;;;;4985083;28;20054;-52